Главная страница
METAR-TAF:

METAR-TAF

Аэропорты :

Chautauqua County/Dunkirk Airport

Dunkirk, Нью-Йорк, США

широта: 42-29-35N, долгота: 079-16-33W, высота над уровнем моря: 211 м

Текущие метеонаблюдения

Эта сводка был подготовлена 59 минут назад, в 11:53 UTC
Ветер 17 Узел от южный с порывами до 30 Узел
Температура 2°C
Влажность 44%
Давление 1024 hPa
Видимость: 16.1 км
Сплошная облачность на высоте 9000 фута

METAR: KDKK 081153Z AUTO 18017G30KT 10SM OVC090 02/M09 A3023 RMK AO2 PK WND 18030/1147 SLP244 60000 T00221094 10022 21006 58021

Время: 07:52 (12:52 UTC)


TAF: отсутствует

Метеонаблюдения и прогнозы для более 4000 аэропортов (сводки METAR и TAF).

Имеющиеся станции представлены на карте желтыми и красными точками.

Чтобы увидеть название станции, наведите на нее мышь.

Затем щелкните, чтобы увидеть метеонаблюдения и метеопрогнозы.

Управление картой: чтобы увеличить масштаб, щелкните зеленые кнопки с черным крестиком; чтобы уменьшить масштаб, щелкните зеленую кнопку с тире; для просмотра соседних карт щелкайте зеленые стрелки.


METAR-TAF: